sensor_id;sensor_type;location;lat;lon;timestamp;P1;durP1;ratioP1;P2;durP2;ratioP2
57627;SDS011;43451;49.060;10.616;2022-07-24T00:02:24;18.67;;;14.43;;
57627;SDS011;43451;49.060;10.616;2022-07-24T00:04:50;19.13;;;15.00;;
57627;SDS011;43451;49.060;10.616;2022-07-24T00:07:15;18.48;;;14.75;;
57627;SDS011;43451;49.060;10.616;2022-07-24T00:09:41;13.88;;;11.40;;
57627;SDS011;43451;49.060;10.616;2022-07-24T00:12:06;11.35;;;9.50;;
57627;SDS011;43451;49.060;10.616;2022-07-24T00:14:32;13.52;;;11.13;;
57627;SDS011;43451;49.060;10.616;2022-07-24T00:16:57;15.80;;;11.65;;
57627;SDS011;43451;49.060;10.616;2022-07-24T00:19:23;15.50;;;11.73;;
57627;SDS011;43451;49.060;10.616;2022-07-24T00:21:48;15.32;;;12.70;;
57627;SDS011;43451;49.060;10.616;2022-07-24T00:24:14;16.40;;;12.18;;
57627;SDS011;43451;49.060;10.616;2022-07-24T00:26:39;17.52;;;12.25;;
57627;SDS011;43451;49.060;10.616;2022-07-24T00:29:04;17.63;;;12.73;;
57627;SDS011;43451;49.060;10.616;2022-07-24T00:31:30;16.50;;;11.20;;
57627;SDS011;43451;49.060;10.616;2022-07-24T00:33:55;12.65;;;10.85;;
57627;SDS011;43451;49.060;10.616;2022-07-24T00:36:21;15.30;;;11.90;;
57627;SDS011;43451;49.060;10.616;2022-07-24T00:38:46;14.13;;;11.82;;
57627;SDS011;43451;49.060;10.616;2022-07-24T00:41:12;13.25;;;11.32;;
57627;SDS011;43451;49.060;10.616;2022-07-24T00:46:38;16.08;;;12.75;;
57627;SDS011;43451;49.060;10.616;2022-07-24T00:49:06;15.70;;;11.60;;
57627;SDS011;43451;49.060;10.616;2022-07-24T00:51:34;14.18;;;11.32;;
57627;SDS011;43451;49.060;10.616;2022-07-24T00:54:02;15.13;;;11.45;;
57627;SDS011;43451;49.060;10.616;2022-07-24T00:56:29;12.60;;;11.18;;
57627;SDS011;43451;49.060;10.616;2022-07-24T00:58:55;12.00;;;10.70;;
57627;SDS011;43451;49.060;10.616;2022-07-24T01:01:20;13.60;;;10.90;;
57627;SDS011;43451;49.060;10.616;2022-07-24T01:03:46;15.55;;;10.93;;
57627;SDS011;43451;49.060;10.616;2022-07-24T01:06:12;12.95;;;11.23;;
57627;SDS011;43451;49.060;10.616;2022-07-24T01:08:38;12.70;;;10.68;;
57627;SDS011;43451;49.060;10.616;2022-07-24T01:11:03;12.07;;;10.80;;
57627;SDS011;43451;49.060;10.616;2022-07-24T01:13:30;16.15;;;11.52;;
57627;SDS011;43451;49.060;10.616;2022-07-24T01:15:56;14.32;;;11.77;;
57627;SDS011;43451;49.060;10.616;2022-07-24T01:18:22;15.80;;;13.27;;
57627;SDS011;43451;49.060;10.616;2022-07-24T01:20:47;15.27;;;12.07;;
57627;SDS011;43451;49.060;10.616;2022-07-24T01:23:13;15.55;;;13.23;;
57627;SDS011;43451;49.060;10.616;2022-07-24T01:25:39;13.55;;;11.07;;
57627;SDS011;43451;49.060;10.616;2022-07-24T01:28:06;14.93;;;11.63;;
57627;SDS011;43451;49.060;10.616;2022-07-24T01:30:31;12.35;;;10.68;;
57627;SDS011;43451;49.060;10.616;2022-07-24T01:32:57;13.15;;;10.68;;
57627;SDS011;43451;49.060;10.616;2022-07-24T01:35:23;13.70;;;11.32;;
57627;SDS011;43451;49.060;10.616;2022-07-24T01:37:49;13.23;;;11.32;;
57627;SDS011;43451;49.060;10.616;2022-07-24T01:40:15;13.97;;;12.03;;
57627;SDS011;43451;49.060;10.616;2022-07-24T01:42:41;13.77;;;11.85;;
57627;SDS011;43451;49.060;10.616;2022-07-24T01:45:06;14.68;;;11.77;;
57627;SDS011;43451;49.060;10.616;2022-07-24T01:47:32;13.55;;;11.98;;
57627;SDS011;43451;49.060;10.616;2022-07-24T01:49:58;14.70;;;11.77;;
57627;SDS011;43451;49.060;10.616;2022-07-24T01:52:23;18.40;;;12.55;;
57627;SDS011;43451;49.060;10.616;2022-07-24T01:54:52;12.50;;;11.05;;
57627;SDS011;43451;49.060;10.616;2022-07-24T01:57:18;13.80;;;11.75;;
57627;SDS011;43451;49.060;10.616;2022-07-24T01:59:44;16.55;;;11.77;;
57627;SDS011;43451;49.060;10.616;2022-07-24T02:02:09;14.40;;;10.63;;
57627;SDS011;43451;49.060;10.616;2022-07-24T02:04:34;13.60;;;11.13;;
57627;SDS011;43451;49.060;10.616;2022-07-24T02:07:00;15.63;;;11.82;;
57627;SDS011;43451;49.060;10.616;2022-07-24T02:09:25;14.93;;;11.20;;
57627;SDS011;43451;49.060;10.616;2022-07-24T02:11:51;14.23;;;10.77;;
57627;SDS011;43451;49.060;10.616;2022-07-24T02:14:17;14.55;;;11.45;;
57627;SDS011;43451;49.060;10.616;2022-07-24T02:16:43;12.82;;;11.43;;
57627;SDS011;43451;49.060;10.616;2022-07-24T02:19:08;13.32;;;11.38;;
57627;SDS011;43451;49.060;10.616;2022-07-24T02:21:34;13.68;;;11.75;;
57627;SDS011;43451;49.060;10.616;2022-07-24T02:23:59;13.52;;;12.02;;
57627;SDS011;43451;49.060;10.616;2022-07-24T02:26:25;13.15;;;11.52;;
57627;SDS011;43451;49.060;10.616;2022-07-24T02:28:50;14.95;;;11.75;;
57627;SDS011;43451;49.060;10.616;2022-07-24T02:31:16;15.35;;;11.77;;
57627;SDS011;43451;49.060;10.616;2022-07-24T02:33:41;13.90;;;11.63;;
57627;SDS011;43451;49.060;10.616;2022-07-24T02:36:07;14.57;;;11.77;;
57627;SDS011;43451;49.060;10.616;2022-07-24T02:38:32;17.02;;;11.85;;
57627;SDS011;43451;49.060;10.616;2022-07-24T02:40:58;14.32;;;11.30;;
57627;SDS011;43451;49.060;10.616;2022-07-24T02:43:23;13.98;;;11.70;;
57627;SDS011;43451;49.060;10.616;2022-07-24T02:45:49;14.52;;;11.68;;
57627;SDS011;43451;49.060;10.616;2022-07-24T02:48:14;14.80;;;11.45;;
57627;SDS011;43451;49.060;10.616;2022-07-24T02:50:40;14.18;;;11.70;;
57627;SDS011;43451;49.060;10.616;2022-07-24T02:53:05;16.10;;;11.23;;
57627;SDS011;43451;49.060;10.616;2022-07-24T02:55:31;12.90;;;11.45;;
57627;SDS011;43451;49.060;10.616;2022-07-24T02:57:57;14.80;;;10.80;;
57627;SDS011;43451;49.060;10.616;2022-07-24T03:00:22;12.52;;;10.73;;
57627;SDS011;43451;49.060;10.616;2022-07-24T03:02:48;15.57;;;11.43;;
57627;SDS011;43451;49.060;10.616;2022-07-24T03:05:14;13.30;;;10.45;;
57627;SDS011;43451;49.060;10.616;2022-07-24T03:07:40;12.15;;;10.07;;
57627;SDS011;43451;49.060;10.616;2022-07-24T03:10:07;15.95;;;10.75;;
57627;SDS011;43451;49.060;10.616;2022-07-24T03:12:34;11.93;;;10.52;;
57627;SDS011;43451;49.060;10.616;2022-07-24T03:15:00;12.90;;;10.57;;
57627;SDS011;43451;49.060;10.616;2022-07-24T03:17:26;11.75;;;10.50;;
57627;SDS011;43451;49.060;10.616;2022-07-24T03:19:51;13.57;;;11.50;;
57627;SDS011;43451;49.060;10.616;2022-07-24T03:22:17;14.23;;;11.50;;
57627;SDS011;43451;49.060;10.616;2022-07-24T03:24:43;14.90;;;11.20;;
57627;SDS011;43451;49.060;10.616;2022-07-24T03:27:08;13.02;;;10.73;;
57627;SDS011;43451;49.060;10.616;2022-07-24T03:29:34;15.88;;;11.48;;
57627;SDS011;43451;49.060;10.616;2022-07-24T03:32:00;13.95;;;11.93;;
57627;SDS011;43451;49.060;10.616;2022-07-24T03:34:25;13.55;;;10.90;;
57627;SDS011;43451;49.060;10.616;2022-07-24T03:36:51;18.80;;;11.40;;
57627;SDS011;43451;49.060;10.616;2022-07-24T03:39:16;14.25;;;11.38;;
57627;SDS011;43451;49.060;10.616;2022-07-24T03:41:42;14.93;;;11.40;;
57627;SDS011;43451;49.060;10.616;2022-07-24T03:44:08;13.88;;;11.27;;
57627;SDS011;43451;49.060;10.616;2022-07-24T03:46:33;15.30;;;10.88;;
57627;SDS011;43451;49.060;10.616;2022-07-24T03:48:59;12.55;;;11.25;;
57627;SDS011;43451;49.060;10.616;2022-07-24T03:51:24;13.52;;;11.05;;
57627;SDS011;43451;49.060;10.616;2022-07-24T03:53:50;16.33;;;11.32;;
57627;SDS011;43451;49.060;10.616;2022-07-24T03:56:15;18.67;;;11.60;;
57627;SDS011;43451;49.060;10.616;2022-07-24T03:58:41;12.75;;;10.98;;
57627;SDS011;43451;49.060;10.616;2022-07-24T04:01:07;13.32;;;11.07;;
57627;SDS011;43451;49.060;10.616;2022-07-24T04:03:33;12.80;;;11.32;;
57627;SDS011;43451;49.060;10.616;2022-07-24T04:06:02;13.25;;;10.43;;
57627;SDS011;43451;49.060;10.616;2022-07-24T04:08:29;15.02;;;10.63;;
57627;SDS011;43451;49.060;10.616;2022-07-24T04:10:55;17.23;;;10.88;;
57627;SDS011;43451;49.060;10.616;2022-07-24T04:13:23;17.15;;;11.43;;
57627;SDS011;43451;49.060;10.616;2022-07-24T04:15:50;15.88;;;11.25;;
57627;SDS011;43451;49.060;10.616;2022-07-24T04:18:16;18.38;;;11.55;;
57627;SDS011;43451;49.060;10.616;2022-07-24T04:20:41;16.20;;;11.23;;
57627;SDS011;43451;49.060;10.616;2022-07-24T04:23:06;16.98;;;11.63;;
57627;SDS011;43451;49.060;10.616;2022-07-24T04:25:32;13.48;;;11.32;;
57627;SDS011;43451;49.060;10.616;2022-07-24T04:27:59;13.95;;;11.52;;
57627;SDS011;43451;49.060;10.616;2022-07-24T04:30:25;16.13;;;11.57;;
57627;SDS011;43451;49.060;10.616;2022-07-24T04:32:51;13.50;;;11.68;;
57627;SDS011;43451;49.060;10.616;2022-07-24T04:35:16;15.85;;;11.20;;
57627;SDS011;43451;49.060;10.616;2022-07-24T04:37:41;15.05;;;11.13;;
57627;SDS011;43451;49.060;10.616;2022-07-24T04:40:07;11.90;;;10.32;;
57627;SDS011;43451;49.060;10.616;2022-07-24T04:42:33;13.75;;;10.77;;
57627;SDS011;43451;49.060;10.616;2022-07-24T04:44:58;14.38;;;11.05;;
57627;SDS011;43451;49.060;10.616;2022-07-24T04:47:24;16.50;;;11.55;;
57627;SDS011;43451;49.060;10.616;2022-07-24T04:49:49;13.50;;;12.07;;
57627;SDS011;43451;49.060;10.616;2022-07-24T04:52:14;12.77;;;11.40;;
57627;SDS011;43451;49.060;10.616;2022-07-24T04:54:40;14.95;;;11.25;;
57627;SDS011;43451;49.060;10.616;2022-07-24T04:57:05;14.18;;;11.63;;
57627;SDS011;43451;49.060;10.616;2022-07-24T04:59:31;12.98;;;11.18;;
57627;SDS011;43451;49.060;10.616;2022-07-24T05:01:56;13.75;;;11.55;;
57627;SDS011;43451;49.060;10.616;2022-07-24T05:04:22;14.77;;;11.23;;
57627;SDS011;43451;49.060;10.616;2022-07-24T05:06:47;13.35;;;11.77;;
57627;SDS011;43451;49.060;10.616;2022-07-24T05:09:13;14.63;;;12.13;;
57627;SDS011;43451;49.060;10.616;2022-07-24T05:11:39;15.82;;;11.88;;
57627;SDS011;43451;49.060;10.616;2022-07-24T05:14:04;14.10;;;12.15;;
57627;SDS011;43451;49.060;10.616;2022-07-24T05:16:29;14.32;;;12.80;;
57627;SDS011;43451;49.060;10.616;2022-07-24T05:18:55;15.63;;;12.30;;
57627;SDS011;43451;49.060;10.616;2022-07-24T05:21:20;14.35;;;12.38;;
57627;SDS011;43451;49.060;10.616;2022-07-24T05:23:46;16.75;;;12.10;;
57627;SDS011;43451;49.060;10.616;2022-07-24T05:26:11;15.15;;;12.52;;
57627;SDS011;43451;49.060;10.616;2022-07-24T05:28:37;16.60;;;12.40;;
57627;SDS011;43451;49.060;10.616;2022-07-24T05:31:02;14.98;;;11.98;;
57627;SDS011;43451;49.060;10.616;2022-07-24T05:33:29;20.50;;;17.90;;
57627;SDS011;43451;49.060;10.616;2022-07-24T05:35:54;18.58;;;15.73;;
57627;SDS011;43451;49.060;10.616;2022-07-24T05:38:20;22.77;;;15.68;;
57627;SDS011;43451;49.060;10.616;2022-07-24T05:40:45;18.55;;;14.15;;
57627;SDS011;43451;49.060;10.616;2022-07-24T05:43:11;15.20;;;13.10;;
57627;SDS011;43451;49.060;10.616;2022-07-24T05:45:36;15.05;;;12.20;;
57627;SDS011;43451;49.060;10.616;2022-07-24T05:48:02;21.40;;;12.98;;
57627;SDS011;43451;49.060;10.616;2022-07-24T05:50:27;16.35;;;13.07;;
57627;SDS011;43451;49.060;10.616;2022-07-24T05:52:53;15.68;;;12.63;;
57627;SDS011;43451;49.060;10.616;2022-07-24T05:55:18;15.15;;;12.90;;
57627;SDS011;43451;49.060;10.616;2022-07-24T05:57:47;15.52;;;12.52;;
57627;SDS011;43451;49.060;10.616;2022-07-24T06:00:13;16.95;;;12.95;;
57627;SDS011;43451;49.060;10.616;2022-07-24T06:02:40;14.32;;;12.85;;
57627;SDS011;43451;49.060;10.616;2022-07-24T06:05:05;18.00;;;13.15;;
57627;SDS011;43451;49.060;10.616;2022-07-24T06:07:31;24.42;;;13.98;;
57627;SDS011;43451;49.060;10.616;2022-07-24T06:09:56;16.08;;;13.43;;
57627;SDS011;43451;49.060;10.616;2022-07-24T06:12:22;16.05;;;13.65;;
57627;SDS011;43451;49.060;10.616;2022-07-24T06:14:47;15.68;;;12.65;;
57627;SDS011;43451;49.060;10.616;2022-07-24T06:17:16;16.00;;;13.40;;
57627;SDS011;43451;49.060;10.616;2022-07-24T06:19:42;17.95;;;14.32;;
57627;SDS011;43451;49.060;10.616;2022-07-24T06:22:07;19.95;;;14.80;;
57627;SDS011;43451;49.060;10.616;2022-07-24T06:24:32;17.33;;;14.30;;
57627;SDS011;43451;49.060;10.616;2022-07-24T06:26:58;18.40;;;14.98;;
57627;SDS011;43451;49.060;10.616;2022-07-24T06:29:23;17.23;;;14.48;;
57627;SDS011;43451;49.060;10.616;2022-07-24T06:31:49;18.65;;;14.55;;
57627;SDS011;43451;49.060;10.616;2022-07-24T06:34:14;18.50;;;14.43;;
57627;SDS011;43451;49.060;10.616;2022-07-24T06:36:39;17.88;;;13.82;;
57627;SDS011;43451;49.060;10.616;2022-07-24T06:39:05;17.17;;;14.20;;
57627;SDS011;43451;49.060;10.616;2022-07-24T06:41:30;18.25;;;13.27;;
57627;SDS011;43451;49.060;10.616;2022-07-24T06:43:56;15.35;;;12.82;;
57627;SDS011;43451;49.060;10.616;2022-07-24T06:46:21;15.45;;;12.93;;
57627;SDS011;43451;49.060;10.616;2022-07-24T06:48:46;15.52;;;12.82;;
57627;SDS011;43451;49.060;10.616;2022-07-24T06:51:12;15.02;;;12.30;;
57627;SDS011;43451;49.060;10.616;2022-07-24T06:53:37;13.05;;;11.35;;
57627;SDS011;43451;49.060;10.616;2022-07-24T06:56:06;14.07;;;11.35;;
57627;SDS011;43451;49.060;10.616;2022-07-24T06:58:31;11.65;;;10.45;;
57627;SDS011;43451;49.060;10.616;2022-07-24T07:00:57;11.13;;;9.93;;
57627;SDS011;43451;49.060;10.616;2022-07-24T07:03:22;12.68;;;11.02;;
57627;SDS011;43451;49.060;10.616;2022-07-24T07:05:48;11.90;;;10.70;;
57627;SDS011;43451;49.060;10.616;2022-07-24T07:08:13;12.25;;;10.30;;
57627;SDS011;43451;49.060;10.616;2022-07-24T07:10:39;13.88;;;11.65;;
57627;SDS011;43451;49.060;10.616;2022-07-24T07:13:04;12.32;;;10.43;;
57627;SDS011;43451;49.060;10.616;2022-07-24T07:15:29;12.68;;;10.95;;
57627;SDS011;43451;49.060;10.616;2022-07-24T07:17:55;12.60;;;10.50;;
57627;SDS011;43451;49.060;10.616;2022-07-24T07:20:20;14.32;;;10.20;;
57627;SDS011;43451;49.060;10.616;2022-07-24T07:22:46;11.32;;;9.55;;
57627;SDS011;43451;49.060;10.616;2022-07-24T07:25:11;17.58;;;10.23;;
57627;SDS011;43451;49.060;10.616;2022-07-24T07:27:37;11.77;;;9.90;;
57627;SDS011;43451;49.060;10.616;2022-07-24T07:30:04;10.65;;;9.25;;
57627;SDS011;43451;49.060;10.616;2022-07-24T07:32:30;11.88;;;9.27;;
57627;SDS011;43451;49.060;10.616;2022-07-24T07:34:56;11.45;;;8.75;;
57627;SDS011;43451;49.060;10.616;2022-07-24T07:37:22;9.77;;;8.75;;
57627;SDS011;43451;49.060;10.616;2022-07-24T07:39:47;10.02;;;8.68;;
57627;SDS011;43451;49.060;10.616;2022-07-24T07:42:13;11.98;;;8.98;;
57627;SDS011;43451;49.060;10.616;2022-07-24T07:44:38;9.43;;;8.43;;
57627;SDS011;43451;49.060;10.616;2022-07-24T07:47:04;9.27;;;8.30;;
57627;SDS011;43451;49.060;10.616;2022-07-24T07:49:29;11.68;;;8.05;;
57627;SDS011;43451;49.060;10.616;2022-07-24T07:51:54;11.02;;;8.23;;
57627;SDS011;43451;49.060;10.616;2022-07-24T07:54:20;9.60;;;8.15;;
57627;SDS011;43451;49.060;10.616;2022-07-24T07:56:45;10.00;;;7.60;;
57627;SDS011;43451;49.060;10.616;2022-07-24T07:59:11;8.98;;;7.93;;
57627;SDS011;43451;49.060;10.616;2022-07-24T08:01:36;8.02;;;7.13;;
57627;SDS011;43451;49.060;10.616;2022-07-24T08:04:02;10.80;;;7.13;;
57627;SDS011;43451;49.060;10.616;2022-07-24T08:06:28;19.63;;;7.22;;
57627;SDS011;43451;49.060;10.616;2022-07-24T08:08:54;9.77;;;6.97;;
57627;SDS011;43451;49.060;10.616;2022-07-24T08:11:19;8.65;;;6.72;;
57627;SDS011;43451;49.060;10.616;2022-07-24T08:13:45;7.13;;;6.35;;
57627;SDS011;43451;49.060;10.616;2022-07-24T08:16:10;7.32;;;6.63;;
57627;SDS011;43451;49.060;10.616;2022-07-24T08:18:36;7.50;;;6.70;;
57627;SDS011;43451;49.060;10.616;2022-07-24T08:21:02;7.70;;;6.90;;
57627;SDS011;43451;49.060;10.616;2022-07-24T08:23:27;7.82;;;6.70;;
57627;SDS011;43451;49.060;10.616;2022-07-24T08:25:53;7.63;;;6.93;;
57627;SDS011;43451;49.060;10.616;2022-07-24T08:28:18;8.98;;;7.30;;
57627;SDS011;43451;49.060;10.616;2022-07-24T08:30:44;8.75;;;7.13;;
57627;SDS011;43451;49.060;10.616;2022-07-24T08:33:09;8.45;;;7.55;;
57627;SDS011;43451;49.060;10.616;2022-07-24T08:35:35;16.70;;;7.53;;
57627;SDS011;43451;49.060;10.616;2022-07-24T08:38:01;19.92;;;8.05;;
57627;SDS011;43451;49.060;10.616;2022-07-24T08:40:34;13.05;;;8.10;;
57627;SDS011;43451;49.060;10.616;2022-07-24T08:43:06;8.88;;;7.97;;
57627;SDS011;43451;49.060;10.616;2022-07-24T08:45:38;8.73;;;7.65;;
57627;SDS011;43451;49.060;10.616;2022-07-24T08:48:07;17.27;;;14.63;;
57627;SDS011;43451;49.060;10.616;2022-07-24T08:50:35;8.98;;;8.00;;
57627;SDS011;43451;49.060;10.616;2022-07-24T08:53:02;11.32;;;8.10;;
57627;SDS011;43451;49.060;10.616;2022-07-24T08:55:29;8.65;;;7.72;;
57627;SDS011;43451;49.060;10.616;2022-07-24T08:57:55;9.00;;;8.10;;
57627;SDS011;43451;49.060;10.616;2022-07-24T09:00:25;8.57;;;7.68;;
57627;SDS011;43451;49.060;10.616;2022-07-24T09:02:52;8.93;;;7.78;;
57627;SDS011;43451;49.060;10.616;2022-07-24T09:05:18;9.90;;;7.47;;
57627;SDS011;43451;49.060;10.616;2022-07-24T09:07:44;8.27;;;7.43;;
57627;SDS011;43451;49.060;10.616;2022-07-24T09:10:11;8.15;;;7.22;;
57627;SDS011;43451;49.060;10.616;2022-07-24T09:12:42;7.13;;;6.53;;
57627;SDS011;43451;49.060;10.616;2022-07-24T09:15:11;8.85;;;7.03;;
57627;SDS011;43451;49.060;10.616;2022-07-24T09:17:50;8.77;;;7.53;;
57627;SDS011;43451;49.060;10.616;2022-07-24T09:20:21;8.50;;;7.70;;
57627;SDS011;43451;49.060;10.616;2022-07-24T09:22:48;8.45;;;7.55;;
57627;SDS011;43451;49.060;10.616;2022-07-24T09:25:15;9.13;;;7.25;;
57627;SDS011;43451;49.060;10.616;2022-07-24T09:27:58;9.55;;;7.18;;
57627;SDS011;43451;49.060;10.616;2022-07-24T09:30:27;8.70;;;7.32;;
57627;SDS011;43451;49.060;10.616;2022-07-24T09:35:24;7.90;;;7.10;;
57627;SDS011;43451;49.060;10.616;2022-07-24T09:40:42;10.40;;;7.50;;
57627;SDS011;43451;49.060;10.616;2022-07-24T09:48:25;7.68;;;6.97;;
57627;SDS011;43451;49.060;10.616;2022-07-24T09:51:01;8.82;;;7.20;;
57627;SDS011;43451;49.060;10.616;2022-07-24T09:53:34;8.20;;;7.30;;
57627;SDS011;43451;49.060;10.616;2022-07-24T09:59:04;9.43;;;7.20;;
57627;SDS011;43451;49.060;10.616;2022-07-24T10:01:32;7.50;;;6.80;;
57627;SDS011;43451;49.060;10.616;2022-07-24T10:03:59;8.50;;;6.68;;
57627;SDS011;43451;49.060;10.616;2022-07-24T10:06:26;10.32;;;9.25;;
57627;SDS011;43451;49.060;10.616;2022-07-24T10:08:52;11.18;;;7.10;;
57627;SDS011;43451;49.060;10.616;2022-07-24T10:11:19;7.15;;;6.18;;
57627;SDS011;43451;49.060;10.616;2022-07-24T10:13:45;9.10;;;6.95;;
57627;SDS011;43451;49.060;10.616;2022-07-24T10:18:52;9.82;;;7.00;;
57627;SDS011;43451;49.060;10.616;2022-07-24T10:21:32;6.80;;;6.15;;
57627;SDS011;43451;49.060;10.616;2022-07-24T10:26:37;9.13;;;6.70;;
57627;SDS011;43451;49.060;10.616;2022-07-24T10:29:08;7.55;;;6.13;;
57627;SDS011;43451;49.060;10.616;2022-07-24T10:31:40;7.30;;;6.60;;
57627;SDS011;43451;49.060;10.616;2022-07-24T10:34:12;8.07;;;6.78;;
57627;SDS011;43451;49.060;10.616;2022-07-24T10:42:18;6.90;;;6.20;;
57627;SDS011;43451;49.060;10.616;2022-07-24T10:44:44;7.82;;;6.38;;
57627;SDS011;43451;49.060;10.616;2022-07-24T10:47:10;7.10;;;6.40;;
57627;SDS011;43451;49.060;10.616;2022-07-24T10:49:45;9.65;;;6.45;;
57627;SDS011;43451;49.060;10.616;2022-07-24T11:03:03;8.52;;;6.60;;
57627;SDS011;43451;49.060;10.616;2022-07-24T11:05:34;8.95;;;6.32;;
57627;SDS011;43451;49.060;10.616;2022-07-24T11:10:50;7.18;;;6.30;;
57627;SDS011;43451;49.060;10.616;2022-07-24T11:18:35;7.45;;;6.63;;
57627;SDS011;43451;49.060;10.616;2022-07-24T11:21:02;9.15;;;6.60;;
57627;SDS011;43451;49.060;10.616;2022-07-24T11:23:27;8.18;;;6.65;;
57627;SDS011;43451;49.060;10.616;2022-07-24T11:26:35;7.55;;;6.82;;
57627;SDS011;43451;49.060;10.616;2022-07-24T11:29:13;6.72;;;6.00;;
57627;SDS011;43451;49.060;10.616;2022-07-24T11:31:47;7.60;;;6.80;;
57627;SDS011;43451;49.060;10.616;2022-07-24T11:34:13;8.35;;;6.13;;
57627;SDS011;43451;49.060;10.616;2022-07-24T11:36:45;6.75;;;6.15;;
57627;SDS011;43451;49.060;10.616;2022-07-24T11:39:13;6.90;;;6.25;;
57627;SDS011;43451;49.060;10.616;2022-07-24T11:44:10;7.05;;;6.38;;
57627;SDS011;43451;49.060;10.616;2022-07-24T11:46:36;7.72;;;5.88;;
57627;SDS011;43451;49.060;10.616;2022-07-24T11:49:06;8.02;;;6.18;;
57627;SDS011;43451;49.060;10.616;2022-07-24T11:51:47;6.63;;;5.93;;
57627;SDS011;43451;49.060;10.616;2022-07-24T11:54:15;12.88;;;5.95;;
57627;SDS011;43451;49.060;10.616;2022-07-24T11:56:50;6.90;;;6.30;;
57627;SDS011;43451;49.060;10.616;2022-07-24T11:59:29;10.45;;;5.97;;
57627;SDS011;43451;49.060;10.616;2022-07-24T12:02:06;6.97;;;5.68;;
57627;SDS011;43451;49.060;10.616;2022-07-24T12:04:32;8.13;;;6.28;;
57627;SDS011;43451;49.060;10.616;2022-07-24T12:06:59;50.20;;;8.10;;
57627;SDS011;43451;49.060;10.616;2022-07-24T12:09:25;7.15;;;6.45;;
57627;SDS011;43451;49.060;10.616;2022-07-24T12:11:51;7.53;;;6.30;;
57627;SDS011;43451;49.060;10.616;2022-07-24T12:14:18;6.70;;;5.78;;
57627;SDS011;43451;49.060;10.616;2022-07-24T12:16:53;6.47;;;5.88;;
57627;SDS011;43451;49.060;10.616;2022-07-24T12:19:21;6.45;;;5.85;;
57627;SDS011;43451;49.060;10.616;2022-07-24T12:21:48;6.68;;;5.72;;
57627;SDS011;43451;49.060;10.616;2022-07-24T12:24:15;7.97;;;5.90;;
57627;SDS011;43451;49.060;10.616;2022-07-24T12:26:51;6.20;;;5.60;;
57627;SDS011;43451;49.060;10.616;2022-07-24T12:29:23;7.20;;;5.85;;
57627;SDS011;43451;49.060;10.616;2022-07-24T12:32:32;6.07;;;5.47;;
57627;SDS011;43451;49.060;10.616;2022-07-24T12:34:42;6.20;;;5.63;;
57627;SDS011;43451;49.060;10.616;2022-07-24T12:37:15;6.20;;;5.60;;
57627;SDS011;43451;49.060;10.616;2022-07-24T12:39:46;8.13;;;6.20;;
57627;SDS011;43451;49.060;10.616;2022-07-24T12:42:12;5.97;;;5.38;;
57627;SDS011;43451;49.060;10.616;2022-07-24T12:44:41;7.57;;;6.00;;
57627;SDS011;43451;49.060;10.616;2022-07-24T12:47:13;8.10;;;5.93;;
57627;SDS011;43451;49.060;10.616;2022-07-24T12:49:39;6.10;;;5.50;;
57627;SDS011;43451;49.060;10.616;2022-07-24T12:52:22;7.28;;;5.63;;
57627;SDS011;43451;49.060;10.616;2022-07-24T12:54:49;5.90;;;5.40;;
57627;SDS011;43451;49.060;10.616;2022-07-24T12:57:16;5.88;;;5.38;;
57627;SDS011;43451;49.060;10.616;2022-07-24T12:59:43;7.43;;;5.67;;
57627;SDS011;43451;49.060;10.616;2022-07-24T13:02:15;6.57;;;5.88;;
57627;SDS011;43451;49.060;10.616;2022-07-24T13:04:46;7.85;;;6.10;;
57627;SDS011;43451;49.060;10.616;2022-07-24T13:07:13;6.38;;;5.78;;
57627;SDS011;43451;49.060;10.616;2022-07-24T13:09:40;8.13;;;5.75;;
57627;SDS011;43451;49.060;10.616;2022-07-24T13:12:06;6.57;;;5.90;;
57627;SDS011;43451;49.060;10.616;2022-07-24T13:14:33;8.30;;;5.97;;
57627;SDS011;43451;49.060;10.616;2022-07-24T13:17:07;6.10;;;5.50;;
57627;SDS011;43451;49.060;10.616;2022-07-24T13:19:36;6.60;;;5.67;;
57627;SDS011;43451;49.060;10.616;2022-07-24T13:22:02;6.82;;;6.13;;
57627;SDS011;43451;49.060;10.616;2022-07-24T13:24:28;6.37;;;5.77;;
57627;SDS011;43451;49.060;10.616;2022-07-24T13:26:54;6.90;;;5.90;;
57627;SDS011;43451;49.060;10.616;2022-07-24T13:29:20;8.37;;;5.93;;
57627;SDS011;43451;49.060;10.616;2022-07-24T13:31:46;6.95;;;5.78;;
57627;SDS011;43451;49.060;10.616;2022-07-24T13:34:12;7.13;;;5.47;;
57627;SDS011;43451;49.060;10.616;2022-07-24T13:36:37;6.00;;;5.40;;
57627;SDS011;43451;49.060;10.616;2022-07-24T13:39:04;7.93;;;6.07;;
57627;SDS011;43451;49.060;10.616;2022-07-24T13:41:31;6.15;;;5.55;;
57627;SDS011;43451;49.060;10.616;2022-07-24T13:43:57;6.55;;;5.82;;
57627;SDS011;43451;49.060;10.616;2022-07-24T13:46:23;8.23;;;5.90;;
57627;SDS011;43451;49.060;10.616;2022-07-24T13:48:48;8.33;;;5.97;;
57627;SDS011;43451;49.060;10.616;2022-07-24T13:51:14;12.33;;;6.40;;
57627;SDS011;43451;49.060;10.616;2022-07-24T13:53:39;6.93;;;6.33;;
57627;SDS011;43451;49.060;10.616;2022-07-24T13:56:06;7.40;;;6.23;;
57627;SDS011;43451;49.060;10.616;2022-07-24T14:01:00;6.50;;;5.88;;
57627;SDS011;43451;49.060;10.616;2022-07-24T14:03:25;7.03;;;5.70;;
57627;SDS011;43451;49.060;10.616;2022-07-24T14:05:51;6.80;;;5.60;;
57627;SDS011;43451;49.060;10.616;2022-07-24T14:08:16;7.80;;;6.03;;
57627;SDS011;43451;49.060;10.616;2022-07-24T14:10:42;6.83;;;5.73;;
57627;SDS011;43451;49.060;10.616;2022-07-24T14:13:07;11.70;;;6.17;;
57627;SDS011;43451;49.060;10.616;2022-07-24T14:15:33;6.47;;;5.80;;
57627;SDS011;43451;49.060;10.616;2022-07-24T14:17:58;6.90;;;6.17;;
57627;SDS011;43451;49.060;10.616;2022-07-24T14:20:23;6.50;;;5.60;;
57627;SDS011;43451;49.060;10.616;2022-07-24T14:22:49;6.27;;;5.67;;
57627;SDS011;43451;49.060;10.616;2022-07-24T14:25:14;8.30;;;5.93;;
57627;SDS011;43451;49.060;10.616;2022-07-24T14:27:40;7.40;;;6.17;;
57627;SDS011;43451;49.060;10.616;2022-07-24T14:30:06;6.20;;;5.60;;
57627;SDS011;43451;49.060;10.616;2022-07-24T14:32:32;6.68;;;5.70;;
57627;SDS011;43451;49.060;10.616;2022-07-24T14:34:58;6.55;;;5.95;;
57627;SDS011;43451;49.060;10.616;2022-07-24T14:37:24;16.70;;;5.97;;
57627;SDS011;43451;49.060;10.616;2022-07-24T14:39:49;11.70;;;6.13;;
57627;SDS011;43451;49.060;10.616;2022-07-24T14:42:14;7.03;;;5.67;;
57627;SDS011;43451;49.060;10.616;2022-07-24T14:44:40;21.30;;;6.60;;
57627;SDS011;43451;49.060;10.616;2022-07-24T14:47:05;7.60;;;5.80;;
57627;SDS011;43451;49.060;10.616;2022-07-24T14:49:31;13.27;;;6.27;;
57627;SDS011;43451;49.060;10.616;2022-07-24T14:51:57;7.38;;;5.70;;
57627;SDS011;43451;49.060;10.616;2022-07-24T14:54:22;7.33;;;6.30;;
57627;SDS011;43451;49.060;10.616;2022-07-24T14:56:48;7.93;;;5.90;;
57627;SDS011;43451;49.060;10.616;2022-07-24T14:59:13;8.57;;;6.10;;
57627;SDS011;43451;49.060;10.616;2022-07-24T15:01:39;8.00;;;5.80;;
57627;SDS011;43451;49.060;10.616;2022-07-24T15:04:04;6.87;;;6.27;;
57627;SDS011;43451;49.060;10.616;2022-07-24T15:06:30;6.03;;;5.32;;
57627;SDS011;43451;49.060;10.616;2022-07-24T15:08:56;9.10;;;5.70;;
57627;SDS011;43451;49.060;10.616;2022-07-24T15:11:21;7.77;;;6.23;;